createdAt,value
2023-12-19T00:01:22.665Z,68.28
2023-12-19T00:04:34.962Z,68.16
2023-12-19T00:07:47.418Z,68.09
2023-12-19T00:10:54.731Z,68.36
2023-12-19T00:14:02.726Z,67.94
2023-12-19T00:17:09.957Z,67.84
2023-12-19T00:20:18.316Z,67.83
2023-12-19T00:23:38.458Z,67.74
2023-12-19T00:26:46.381Z,67.65
2023-12-19T00:29:57.840Z,67.39
2023-12-19T00:33:06.773Z,67.08
2023-12-19T00:36:24.599Z,66.91
2023-12-19T00:39:41.471Z,67.14
2023-12-19T00:42:48.757Z,67.02
2023-12-19T00:45:59.233Z,66.54
2023-12-19T00:49:08.176Z,66.13
2023-12-19T00:52:16.156Z,66.08
2023-12-19T00:55:26.444Z,65.90
2023-12-19T00:58:40.523Z,65.72
2023-12-19T01:01:53.813Z,65.40
2023-12-19T01:05:02.702Z,65.49
2023-12-19T01:08:28.247Z,65.11
2023-12-19T01:11:45.805Z,65.06
2023-12-19T01:14:52.959Z,64.87
2023-12-19T01:18:00.971Z,64.67
2023-12-19T01:21:15.451Z,64.88
2023-12-19T01:24:26.765Z,64.99
2023-12-19T01:27:36.933Z,64.69
2023-12-19T01:30:46.525Z,64.65
2023-12-19T01:33:54.891Z,64.67
2023-12-19T01:37:02.998Z,64.67
2023-12-19T01:40:22.889Z,64.32
2023-12-19T01:43:33.529Z,64.13
2023-12-19T01:46:40.572Z,64.11
2023-12-19T01:49:55.050Z,64.23
2023-12-19T01:53:03.454Z,63.89
2023-12-19T01:56:16.668Z,63.94
2023-12-19T01:59:37.075Z,63.70
2023-12-19T02:02:46.404Z,63.69
2023-12-19T02:05:57.692Z,63.18
2023-12-19T02:09:06.478Z,63.49
2023-12-19T02:12:14.208Z,63.46
2023-12-19T02:15:31.620Z,62.92
2023-12-19T02:18:46.859Z,63.01
2023-12-19T02:21:54.908Z,62.35
2023-12-19T02:25:05.410Z,62.11
2023-12-19T02:28:13.579Z,61.84
2023-12-19T02:31:20.858Z,61.98
2023-12-19T02:34:29.305Z,61.72
2023-12-19T02:37:36.666Z,61.54
2023-12-19T02:40:47.455Z,61.40
2023-12-19T02:43:57.986Z,61.32
2023-12-19T02:47:06.717Z,61.32
2023-12-19T02:50:14.686Z,61.18
2023-12-19T02:53:22.672Z,61.42
2023-12-19T02:56:42.490Z,60.81
2023-12-19T02:59:54.198Z,60.47
2023-12-19T03:03:02.599Z,60.19
2023-12-19T03:06:11.153Z,59.65
2023-12-19T03:09:18.302Z,59.82
2023-12-19T03:12:28.775Z,59.54
2023-12-19T03:15:39.951Z,59.23
2023-12-19T03:18:48.077Z,58.98
2023-12-19T03:21:55.945Z,58.89
2023-12-19T03:25:04.064Z,58.22
2023-12-19T03:28:13.795Z,58.20
2023-12-19T03:31:22.024Z,57.78
2023-12-19T03:34:29.394Z,57.92
2023-12-19T03:37:51.992Z,57.44
2023-12-19T03:41:01.520Z,57.08
2023-12-19T03:44:12.076Z,57.23
2023-12-19T03:47:19.554Z,56.86
2023-12-19T03:50:37.505Z,56.51
2023-12-19T03:53:44.670Z,56.57
2023-12-19T03:56:54.813Z,56.05
2023-12-19T04:00:08.342Z,56.18
2023-12-19T04:03:19.256Z,55.85
2023-12-19T04:06:31.376Z,55.95
2023-12-19T04:09:41.818Z,55.60
2023-12-19T04:12:49.413Z,56.02
2023-12-19T04:16:13.135Z,56.05
2023-12-19T04:19:27.656Z,55.84
2023-12-19T04:22:38.973Z,56.27
2023-12-19T04:25:57.404Z,56.40
2023-12-19T04:29:08.266Z,56.38
2023-12-19T04:32:18.434Z,56.65
2023-12-19T04:35:27.238Z,56.18
2023-12-19T04:38:40.453Z,56.03
2023-12-19T04:41:55.203Z,56.03
2023-12-19T04:45:02.614Z,55.68
2023-12-19T04:48:18.058Z,56.04
2023-12-19T04:51:43.612Z,55.67
2023-12-19T04:54:55.185Z,55.42
2023-12-19T04:58:02.639Z,55.70
2023-12-19T05:01:20.641Z,55.53
2023-12-19T05:04:30.674Z,55.70
2023-12-19T05:07:38.805Z,55.83
2023-12-19T05:10:45.901Z,55.68
2023-12-19T05:13:54.209Z,55.47
2023-12-19T05:17:01.425Z,55.91
2023-12-19T05:20:14.235Z,55.88
2023-12-19T05:23:21.458Z,56.38
2023-12-19T05:26:29.480Z,56.72
2023-12-19T05:29:36.554Z,56.82
2023-12-19T05:32:57.588Z,56.89
2023-12-19T05:36:29.876Z,57.21
2023-12-19T05:39:49.472Z,57.26
2023-12-19T05:42:59.702Z,57.49
2023-12-19T05:46:07.913Z,57.96
2023-12-19T05:49:16.942Z,57.85
2023-12-19T05:52:28.363Z,58.07
2023-12-19T05:55:36.437Z,58.04
2023-12-19T05:58:47.688Z,58.51
2023-12-19T06:01:54.891Z,58.34
2023-12-19T06:05:08.904Z,58.37
2023-12-19T06:08:23.089Z,58.02
2023-12-19T06:11:32.980Z,57.97
2023-12-19T06:14:41.789Z,57.63
2023-12-19T06:17:50.945Z,57.73
2023-12-19T06:20:58.168Z,57.40
2023-12-19T06:24:13.231Z,57.16
2023-12-19T06:27:20.683Z,56.95
2023-12-19T06:30:36.391Z,56.84
2023-12-19T06:33:47.052Z,56.35
2023-12-19T06:36:57.086Z,56.25
2023-12-19T06:40:08.768Z,55.74
2023-12-19T06:43:16.805Z,56.00
2023-12-19T06:46:24.722Z,56.11
2023-12-19T06:49:32.709Z,56.28
2023-12-19T06:52:39.820Z,55.97
2023-12-19T06:55:50.507Z,56.11
2023-12-19T06:59:10.524Z,56.13
2023-12-19T07:02:22.988Z,55.88
2023-12-19T07:05:33.380Z,55.72
2023-12-19T07:08:46.556Z,56.13
2023-12-19T07:11:57.485Z,55.95
2023-12-19T07:15:07.022Z,56.14
2023-12-19T07:18:16.371Z,56.04
2023-12-19T07:21:53.450Z,55.70
2023-12-19T07:25:00.670Z,55.45
2023-12-19T07:28:23.036Z,55.43
2023-12-19T07:31:32.840Z,55.69
2023-12-19T07:34:47.911Z,55.57
2023-12-19T07:38:02.540Z,55.73
2023-12-19T07:41:11.318Z,55.26
2023-12-19T07:44:21.578Z,55.02
2023-12-19T07:47:29.889Z,54.92
2023-12-19T07:50:43.596Z,54.33
2023-12-19T07:53:51.845Z,54.02
2023-12-19T07:56:59.618Z,53.56
2023-12-19T08:00:21.968Z,53.52
2023-12-19T08:03:29.452Z,53.24
2023-12-19T08:06:37.837Z,53.45
2023-12-19T08:09:44.976Z,52.90
2023-12-19T08:13:03.429Z,52.42
2023-12-19T08:16:13.543Z,51.94
2023-12-19T08:19:28.801Z,51.23
2023-12-19T08:22:35.956Z,50.70
2023-12-19T08:25:45.188Z,50.06
2023-12-19T08:28:53.011Z,50.22
2023-12-19T08:32:03.561Z,49.14
2023-12-19T08:35:11.618Z,48.17
2023-12-19T08:38:20.101Z,48.06
2023-12-19T08:41:27.777Z,47.98
2023-12-19T08:44:35.821Z,47.88
2023-12-19T08:47:52.139Z,48.08
2023-12-19T08:51:00.231Z,47.67
2023-12-19T08:54:14.580Z,46.91
2023-12-19T08:57:28.680Z,46.16
2023-12-19T09:00:37.066Z,45.94
2023-12-19T09:03:47.837Z,45.44
2023-12-19T09:07:07.626Z,45.64
2023-12-19T09:10:22.354Z,46.34
2023-12-19T09:13:31.349Z,45.61
2023-12-19T09:16:39.300Z,45.87
2023-12-19T09:19:58.013Z,45.37
2023-12-19T09:23:06.366Z,45.13
2023-12-19T09:26:13.742Z,45.27
2023-12-19T09:29:29.390Z,45.86
2023-12-19T09:32:36.578Z,46.57
2023-12-19T09:35:52.858Z,47.14
2023-12-19T09:39:02.539Z,47.80
2023-12-19T09:42:13.226Z,48.70
2023-12-19T09:45:20.640Z,48.64
2023-12-19T09:48:29.832Z,47.61
2023-12-19T09:51:47.319Z,47.06
2023-12-19T09:54:59.897Z,45.85
2023-12-19T09:58:10.409Z,45.26
2023-12-19T10:01:21.964Z,45.47
2023-12-19T10:04:30.744Z,44.95
2023-12-19T10:07:41.565Z,44.17
2023-12-19T10:11:00.231Z,44.19
2023-12-19T10:14:15.896Z,43.16
2023-12-19T10:17:23.970Z,42.78
2023-12-19T10:20:32.114Z,42.95
2023-12-19T10:23:42.506Z,42.71
2023-12-19T10:26:50.780Z,42.29
2023-12-19T10:29:58.137Z,42.05
2023-12-19T10:33:09.737Z,41.86
2023-12-19T10:36:30.310Z,41.06
2023-12-19T10:39:55.603Z,41.21
2023-12-19T10:43:25.387Z,39.63
2023-12-19T10:46:36.483Z,39.98
2023-12-19T10:49:47.887Z,39.46
2023-12-19T10:53:06.890Z,39.58
2023-12-19T10:56:19.709Z,40.54
2023-12-19T10:59:52.866Z,41.50
2023-12-19T11:03:28.840Z,41.95
2023-12-19T11:06:47.067Z,41.32
2023-12-19T11:10:07.205Z,40.24
2023-12-19T11:13:19.018Z,40.20
2023-12-19T11:16:56.503Z,41.31
2023-12-19T11:20:36.428Z,42.42
2023-12-19T11:24:20.770Z,42.58
2023-12-19T11:27:40.409Z,42.20
2023-12-19T11:30:50.411Z,41.94
2023-12-19T11:33:58.823Z,40.96
2023-12-19T11:37:09.176Z,41.31
2023-12-19T11:40:54.558Z,41.70
2023-12-19T11:44:02.591Z,43.27
2023-12-19T11:47:23.526Z,43.61
2023-12-19T11:50:51.445Z,43.67
2023-12-19T11:54:00.823Z,44.01
2023-12-19T11:57:08.981Z,43.78
2023-12-19T12:00:24.655Z,43.58
2023-12-19T12:03:43.250Z,43.73
2023-12-19T12:06:51.597Z,43.84
2023-12-19T12:10:12.841Z,44.44
2023-12-19T12:13:44.257Z,44.33
2023-12-19T12:16:51.425Z,44.39
2023-12-19T12:20:02.825Z,44.58
2023-12-19T12:23:10.057Z,44.26
2023-12-19T12:26:37.793Z,44.41
2023-12-19T12:29:45.632Z,43.83
2023-12-19T12:33:20.681Z,41.92
2023-12-19T12:36:31.713Z,42.11
2023-12-19T12:39:39.829Z,41.87
2023-12-19T12:42:46.990Z,41.99
2023-12-19T12:46:18.212Z,42.36
2023-12-19T12:49:25.803Z,42.36
2023-12-19T12:52:36.640Z,41.92
2023-12-19T12:55:44.180Z,42.57
2023-12-19T12:59:03.731Z,40.61
2023-12-19T13:02:11.123Z,39.84
2023-12-19T13:05:19.231Z,39.98
2023-12-19T13:08:29.006Z,39.32
2023-12-19T13:11:36.939Z,38.34
2023-12-19T13:14:44.206Z,37.97
2023-12-19T13:17:52.367Z,38.08
2023-12-19T13:21:03.359Z,38.34
2023-12-19T13:24:15.415Z,38.79
2023-12-19T13:27:22.655Z,38.52
2023-12-19T13:30:31.392Z,38.59
2023-12-19T13:33:54.724Z,38.43
2023-12-19T13:37:22.980Z,39.03
2023-12-19T13:40:33.373Z,38.81
2023-12-19T13:43:42.083Z,38.50
2023-12-19T13:46:49.782Z,39.00
2023-12-19T13:49:57.867Z,38.49
2023-12-19T13:53:06.076Z,38.99
2023-12-19T13:56:21.281Z,38.98
2023-12-19T13:59:29.505Z,39.20
2023-12-19T14:02:40.517Z,39.80
2023-12-19T14:05:48.229Z,40.26
2023-12-19T14:08:56.213Z,40.31
2023-12-19T14:12:06.033Z,40.54
2023-12-19T14:15:17.028Z,40.90
2023-12-19T14:18:24.890Z,41.46
2023-12-19T14:21:33.087Z,41.62
2023-12-19T14:24:41.033Z,41.93
2023-12-19T14:27:53.940Z,42.08
2023-12-19T14:31:01.285Z,42.42
2023-12-19T14:34:09.674Z,42.66
2023-12-19T14:37:19.136Z,42.44
2023-12-19T14:40:27.282Z,42.88
2023-12-19T14:43:37.208Z,43.04
2023-12-19T14:46:46.670Z,42.94
2023-12-19T14:49:54.213Z,42.87
2023-12-19T14:53:02.485Z,43.22
2023-12-19T14:56:13.389Z,42.98
2023-12-19T14:59:23.955Z,43.58
2023-12-19T15:02:32.241Z,43.09
2023-12-19T15:05:40.231Z,43.43
2023-12-19T15:08:48.299Z,43.85
2023-12-19T15:11:56.349Z,43.17
2023-12-19T15:15:06.634Z,43.40
2023-12-19T15:18:20.333Z,43.55
2023-12-19T15:21:37.010Z,43.49
2023-12-19T15:24:45.153Z,43.82
2023-12-19T15:27:52.271Z,44.37
2023-12-19T15:31:03.057Z,44.79
2023-12-19T15:34:10.638Z,45.05
2023-12-19T15:37:20.508Z,45.58
2023-12-19T15:40:27.916Z,45.18
2023-12-19T15:43:41.059Z,45.12
2023-12-19T15:46:51.832Z,45.23
2023-12-19T15:50:00.224Z,45.04
2023-12-19T15:53:08.514Z,44.81
2023-12-19T15:56:16.581Z,44.62
2023-12-19T15:59:23.632Z,44.68
2023-12-19T16:02:42.469Z,44.64
2023-12-19T16:06:05.782Z,44.44
2023-12-19T16:09:13.982Z,44.62
2023-12-19T16:12:21.194Z,45.03
2023-12-19T16:15:30.179Z,45.43
2023-12-19T16:18:40.064Z,45.21
2023-12-19T16:21:48.351Z,45.60
2023-12-19T16:24:56.920Z,46.08
2023-12-19T16:28:05.458Z,46.24
2023-12-19T16:31:22.263Z,46.04
2023-12-19T16:34:33.293Z,46.03
2023-12-19T16:37:40.633Z,46.40
2023-12-19T16:40:55.932Z,47.04
2023-12-19T16:44:03.123Z,47.12
2023-12-19T16:47:11.358Z,46.88
2023-12-19T16:50:22.550Z,46.81
2023-12-19T16:53:30.578Z,46.77
2023-12-19T16:56:38.973Z,46.85
2023-12-19T16:59:47.699Z,46.91
2023-12-19T17:02:57.068Z,47.00
2023-12-19T17:06:09.172Z,46.64
2023-12-19T17:09:16.495Z,46.63
2023-12-19T17:12:24.595Z,46.27
2023-12-19T17:15:32.392Z,46.49
2023-12-19T17:18:41.758Z,46.52
2023-12-19T17:21:51.600Z,46.74
2023-12-19T17:25:00.632Z,47.03
2023-12-19T17:28:09.168Z,47.04
2023-12-19T17:31:23.567Z,47.45
2023-12-19T17:34:30.961Z,47.38
2023-12-19T17:37:41.759Z,47.80
2023-12-19T17:40:49.287Z,47.91
2023-12-19T17:44:02.551Z,48.05
2023-12-19T17:47:10.351Z,48.05
2023-12-19T17:50:24.033Z,48.40
2023-12-19T17:53:34.959Z,48.12
2023-12-19T17:56:43.094Z,48.41
2023-12-19T17:59:50.337Z,48.26
2023-12-19T18:02:58.314Z,48.47
2023-12-19T18:06:09.873Z,48.84
2023-12-19T18:09:21.221Z,48.62
2023-12-19T18:12:31.252Z,49.15
2023-12-19T18:15:39.360Z,49.33
2023-12-19T18:18:46.902Z,49.26
2023-12-19T18:21:55.039Z,49.57
2023-12-19T18:25:05.760Z,49.42
2023-12-19T18:28:13.925Z,49.31
2023-12-19T18:31:21.202Z,49.59
2023-12-19T18:34:30.289Z,49.81
2023-12-19T18:37:38.676Z,49.88
2023-12-19T18:40:53.349Z,49.65
2023-12-19T18:44:00.546Z,50.12
2023-12-19T18:47:09.451Z,50.47
2023-12-19T18:50:25.894Z,50.49
2023-12-19T18:53:34.647Z,50.62
2023-12-19T18:56:44.545Z,50.42
2023-12-19T18:59:52.627Z,50.77
2023-12-19T19:03:00.993Z,50.80
2023-12-19T19:06:09.498Z,51.24
2023-12-19T19:09:17.507Z,51.16
2023-12-19T19:12:28.255Z,51.35
2023-12-19T19:15:36.835Z,51.11
2023-12-19T19:18:47.475Z,51.53
2023-12-19T19:21:54.705Z,51.04
2023-12-19T19:25:04.713Z,51.23
2023-12-19T19:28:18.121Z,51.21
2023-12-19T19:31:26.521Z,51.16
2023-12-19T19:34:36.072Z,51.20
2023-12-19T19:37:44.591Z,51.18
2023-12-19T19:40:56.325Z,51.21
2023-12-19T19:44:13.825Z,51.21
2023-12-19T19:47:21.124Z,50.92
2023-12-19T19:50:29.796Z,51.15
2023-12-19T19:53:39.194Z,51.03
2023-12-19T19:56:47.390Z,51.30
2023-12-19T19:59:57.377Z,51.23
2023-12-19T20:03:07.515Z,51.17
2023-12-19T20:06:15.734Z,51.32
2023-12-19T20:09:23.720Z,51.09
2023-12-19T20:12:35.184Z,50.77
2023-12-19T20:15:45.985Z,50.73
2023-12-19T20:18:53.398Z,50.58
2023-12-19T20:22:08.186Z,50.13
2023-12-19T20:25:17.565Z,49.92
2023-12-19T20:28:26.170Z,50.21
2023-12-19T20:31:35.987Z,49.46
2023-12-19T20:34:44.003Z,49.80
2023-12-19T20:37:51.274Z,49.94
2023-12-19T20:40:59.711Z,49.69
2023-12-19T20:44:08.876Z,49.78
2023-12-19T20:47:19.666Z,49.79
2023-12-19T20:50:27.032Z,49.37
2023-12-19T20:53:35.223Z,49.58
2023-12-19T20:56:42.968Z,49.40
2023-12-19T20:59:54.972Z,49.06
2023-12-19T21:03:05.453Z,49.00
2023-12-19T21:06:13.521Z,49.12
2023-12-19T21:09:20.716Z,48.87
2023-12-19T21:12:28.967Z,48.30
2023-12-19T21:15:36.760Z,48.48
2023-12-19T21:18:47.364Z,48.48
2023-12-19T21:21:54.610Z,49.05
2023-12-19T21:25:03.086Z,49.14
2023-12-19T21:28:10.753Z,49.21
2023-12-19T21:31:22.940Z,49.19
2023-12-19T21:34:34.141Z,48.73
2023-12-19T21:37:47.278Z,49.22
2023-12-19T21:40:56.655Z,49.31
2023-12-19T21:44:05.423Z,49.49
2023-12-19T21:47:12.569Z,49.02
2023-12-19T21:50:23.348Z,49.54
2023-12-19T21:53:30.485Z,49.08
2023-12-19T21:56:41.912Z,49.38
2023-12-19T21:59:49.949Z,49.21
2023-12-19T22:02:57.952Z,48.52
2023-12-19T22:06:08.408Z,48.95
2023-12-19T22:09:16.680Z,48.93
2023-12-19T22:12:23.877Z,48.78
2023-12-19T22:15:31.902Z,48.96
2023-12-19T22:18:39.324Z,48.70
2023-12-19T22:21:50.003Z,48.89
2023-12-19T22:24:57.402Z,48.55
2023-12-19T22:28:11.041Z,48.37
2023-12-19T22:31:38.734Z,48.30
2023-12-19T22:34:47.202Z,48.57
2023-12-19T22:38:02.582Z,48.47
2023-12-19T22:41:17.556Z,47.81
2023-12-19T22:44:24.868Z,47.79
2023-12-19T22:47:33.702Z,47.22
2023-12-19T22:50:40.793Z,47.78
2023-12-19T22:53:52.595Z,47.90
2023-12-19T22:56:59.837Z,48.42
2023-12-19T23:00:18.355Z,48.60
2023-12-19T23:03:28.320Z,48.04
2023-12-19T23:06:38.147Z,49.42
2023-12-19T23:09:48.617Z,50.03
2023-12-19T23:12:57.995Z,49.80
2023-12-19T23:16:08.619Z,48.89
2023-12-19T23:19:35.879Z,48.44
2023-12-19T23:23:04.280Z,48.79
2023-12-19T23:26:17.543Z,48.21
2023-12-19T23:29:24.741Z,48.12
2023-12-19T23:32:34.873Z,48.23
2023-12-19T23:35:41.963Z,48.58
2023-12-19T23:38:49.889Z,49.85
2023-12-19T23:42:08.589Z,49.93
2023-12-19T23:45:16.770Z,50.23
2023-12-19T23:48:23.921Z,49.55
2023-12-19T23:51:31.973Z,49.88
2023-12-19T23:54:39.286Z,49.71
2023-12-19T23:57:50.025Z,49.63
